If you wish to contribute or participate in the discussions about articles you are invited to join SKYbrary as a registered user

 Actions

Fukushima Airport

From SKYbrary Wiki

RJSF
Airport
ICAO: RJSF – IATA: FKS
Summary
Name Fukushima Airport
Region Asia and Pacific
Territory Japan JP.gif
Location Sukagawa, Fukushima Prefecture
Serving Sukagawa
Elevation 371.856 m <br />1,220 ft371.856 m <br />
Coordinates 37° 13' 42.33" N, 140° 25' 43.08" E
Runways
Designator Length Width Surface ROPS
1/19 2500 m8,202.1 ft <br /> 60 m196.85 ft <br /> ASP yes/yes


METAR
Observation RJSF 230900Z VRB01KT 9999 -SHRA FEW010 SCT050 BKN070 20/17 Q1012
Station Fukushima Airport
Date/Time 23 June 2021 09:00:00
Wind direction °
Wind speed 01 kts
Lowest cloud amount few clouds
Temperature 20°C
Dew point 17°C
Humidity 82%
QNH 1012 hPa
Weather condition light showers rain

Airport serving northern and central Fukushima Prefecture, Japan, located in the city of Sukagawa. The airport is located 19.4 km10.475 nm <br />19,400 m <br />63,648.294 ft <br /> southeast of Kōriyama.

Climatology

Humid Sub-tropical climate (Köppen climate classification Cfa)

Maps

Terrain

Loading map...

Airport Layout

Loading map...


Accidents & Serious Incidents at or in vicinity of RJSF

None on SKYbrary